sensor_id;sensor_type;location;lat;lon;timestamp;temperature;humidity
45115;DHT22;30877;43.706;10.780;2023-11-21T00:00:28;14.40;96.70
45115;DHT22;30877;43.706;10.780;2023-11-21T00:02:56;14.40;96.70
45115;DHT22;30877;43.706;10.780;2023-11-21T00:05:26;14.40;96.70
45115;DHT22;30877;43.706;10.780;2023-11-21T00:07:54;14.30;96.70
45115;DHT22;30877;43.706;10.780;2023-11-21T00:10:23;14.30;96.70
45115;DHT22;30877;43.706;10.780;2023-11-21T00:12:53;14.20;96.70
45115;DHT22;30877;43.706;10.780;2023-11-21T00:15:23;14.20;96.70
45115;DHT22;30877;43.706;10.780;2023-11-21T00:17:51;14.20;96.70
45115;DHT22;30877;43.706;10.780;2023-11-21T00:20:20;14.20;96.70
45115;DHT22;30877;43.706;10.780;2023-11-21T00:22:48;14.20;96.70
45115;DHT22;30877;43.706;10.780;2023-11-21T00:25:17;14.30;96.70
45115;DHT22;30877;43.706;10.780;2023-11-21T00:27:45;14.30;96.70
45115;DHT22;30877;43.706;10.780;2023-11-21T00:30:15;14.30;96.70
45115;DHT22;30877;43.706;10.780;2023-11-21T00:32:44;14.30;96.70
45115;DHT22;30877;43.706;10.780;2023-11-21T00:35:13;14.20;96.70
45115;DHT22;30877;43.706;10.780;2023-11-21T00:37:41;14.20;96.70
45115;DHT22;30877;43.706;10.780;2023-11-21T00:40:11;14.20;96.70
45115;DHT22;30877;43.706;10.780;2023-11-21T00:42:40;14.20;96.70
45115;DHT22;30877;43.706;10.780;2023-11-21T00:45:09;14.20;96.70
45115;DHT22;30877;43.706;10.780;2023-11-21T00:47:38;14.20;96.70
45115;DHT22;30877;43.706;10.780;2023-11-21T00:50:07;14.20;96.70
45115;DHT22;30877;43.706;10.780;2023-11-21T00:52:36;14.20;96.70
45115;DHT22;30877;43.706;10.780;2023-11-21T00:55:05;14.20;96.70
45115;DHT22;30877;43.706;10.780;2023-11-21T00:57:35;14.20;96.70
45115;DHT22;30877;43.706;10.780;2023-11-21T01:00:04;14.20;96.70
45115;DHT22;30877;43.706;10.780;2023-11-21T01:02:43;14.20;96.70
45115;DHT22;30877;43.706;10.780;2023-11-21T01:05:12;14.20;96.70
45115;DHT22;30877;43.706;10.780;2023-11-21T01:07:41;14.10;96.70
45115;DHT22;30877;43.706;10.780;2023-11-21T01:10:09;14.20;96.70
45115;DHT22;30877;43.706;10.780;2023-11-21T01:12:38;14.20;96.70
45115;DHT22;30877;43.706;10.780;2023-11-21T01:15:07;14.20;96.70
45115;DHT22;30877;43.706;10.780;2023-11-21T01:17:35;14.20;96.70
45115;DHT22;30877;43.706;10.780;2023-11-21T01:20:06;14.20;96.70
45115;DHT22;30877;43.706;10.780;2023-11-21T01:22:42;14.20;96.70
45115;DHT22;30877;43.706;10.780;2023-11-21T01:25:11;14.20;96.70
45115;DHT22;30877;43.706;10.780;2023-11-21T01:27:39;14.10;96.70
45115;DHT22;30877;43.706;10.780;2023-11-21T01:30:08;14.10;96.70
45115;DHT22;30877;43.706;10.780;2023-11-21T01:32:38;14.10;96.70
45115;DHT22;30877;43.706;10.780;2023-11-21T01:35:09;14.20;96.70
45115;DHT22;30877;43.706;10.780;2023-11-21T01:37:38;14.20;96.70
45115;DHT22;30877;43.706;10.780;2023-11-21T01:40:08;14.20;96.70
45115;DHT22;30877;43.706;10.780;2023-11-21T01:42:39;14.20;96.70
45115;DHT22;30877;43.706;10.780;2023-11-21T01:45:09;14.20;96.70
45115;DHT22;30877;43.706;10.780;2023-11-21T01:47:38;14.10;96.70
45115;DHT22;30877;43.706;10.780;2023-11-21T01:50:13;14.00;96.70
45115;DHT22;30877;43.706;10.780;2023-11-21T01:52:43;13.90;96.70
45115;DHT22;30877;43.706;10.780;2023-11-21T01:55:11;13.90;96.70
45115;DHT22;30877;43.706;10.780;2023-11-21T01:57:54;14.00;96.70
45115;DHT22;30877;43.706;10.780;2023-11-21T02:00:24;14.00;96.70
45115;DHT22;30877;43.706;10.780;2023-11-21T02:02:55;14.00;96.70
45115;DHT22;30877;43.706;10.780;2023-11-21T02:05:26;14.00;96.70
45115;DHT22;30877;43.706;10.780;2023-11-21T02:07:54;14.00;96.70
45115;DHT22;30877;43.706;10.780;2023-11-21T02:10:24;14.00;96.70
45115;DHT22;30877;43.706;10.780;2023-11-21T02:12:52;14.00;96.70
45115;DHT22;30877;43.706;10.780;2023-11-21T02:15:21;14.00;96.70
45115;DHT22;30877;43.706;10.780;2023-11-21T02:17:51;14.00;96.70
45115;DHT22;30877;43.706;10.780;2023-11-21T02:20:20;14.00;96.70
45115;DHT22;30877;43.706;10.780;2023-11-21T02:22:53;14.00;96.70
45115;DHT22;30877;43.706;10.780;2023-11-21T02:25:27;13.90;96.70
45115;DHT22;30877;43.706;10.780;2023-11-21T02:27:56;13.90;96.70
45115;DHT22;30877;43.706;10.780;2023-11-21T02:30:25;13.90;96.70
45115;DHT22;30877;43.706;10.780;2023-11-21T02:32:54;13.90;96.70
45115;DHT22;30877;43.706;10.780;2023-11-21T02:35:22;13.90;96.70
45115;DHT22;30877;43.706;10.780;2023-11-21T02:37:52;13.90;96.70
45115;DHT22;30877;43.706;10.780;2023-11-21T02:40:20;13.90;96.70
45115;DHT22;30877;43.706;10.780;2023-11-21T02:42:49;13.80;96.70
45115;DHT22;30877;43.706;10.780;2023-11-21T02:45:21;13.90;96.70
45115;DHT22;30877;43.706;10.780;2023-11-21T02:47:51;13.80;96.70
45115;DHT22;30877;43.706;10.780;2023-11-21T02:50:21;13.90;96.70
45115;DHT22;30877;43.706;10.780;2023-11-21T02:52:53;13.90;96.70
45115;DHT22;30877;43.706;10.780;2023-11-21T02:55:22;13.90;96.70
45115;DHT22;30877;43.706;10.780;2023-11-21T02:57:53;13.80;96.70
45115;DHT22;30877;43.706;10.780;2023-11-21T03:00:24;13.80;96.70
45115;DHT22;30877;43.706;10.780;2023-11-21T03:02:55;13.80;96.70
45115;DHT22;30877;43.706;10.780;2023-11-21T03:05:26;13.80;96.70
45115;DHT22;30877;43.706;10.780;2023-11-21T03:07:55;13.90;96.70
45115;DHT22;30877;43.706;10.780;2023-11-21T03:10:25;13.90;96.70
45115;DHT22;30877;43.706;10.780;2023-11-21T03:12:55;13.90;96.70
45115;DHT22;30877;43.706;10.780;2023-11-21T03:15:25;13.90;96.70
45115;DHT22;30877;43.706;10.780;2023-11-21T03:17:53;13.90;96.70
45115;DHT22;30877;43.706;10.780;2023-11-21T03:20:21;13.90;96.70
45115;DHT22;30877;43.706;10.780;2023-11-21T03:22:50;13.90;96.70
45115;DHT22;30877;43.706;10.780;2023-11-21T03:25:19;13.90;96.70
45115;DHT22;30877;43.706;10.780;2023-11-21T03:27:49;13.80;96.70
45115;DHT22;30877;43.706;10.780;2023-11-21T03:30:17;13.90;96.70
45115;DHT22;30877;43.706;10.780;2023-11-21T03:32:45;13.90;96.70
45115;DHT22;30877;43.706;10.780;2023-11-21T03:35:15;13.80;96.70
45115;DHT22;30877;43.706;10.780;2023-11-21T03:37:43;13.80;96.70
45115;DHT22;30877;43.706;10.780;2023-11-21T03:40:12;13.80;96.70
45115;DHT22;30877;43.706;10.780;2023-11-21T03:42:42;13.70;96.70
45115;DHT22;30877;43.706;10.780;2023-11-21T03:45:10;13.80;96.70
45115;DHT22;30877;43.706;10.780;2023-11-21T03:47:41;13.80;96.70
45115;DHT22;30877;43.706;10.780;2023-11-21T03:50:10;13.80;96.70
45115;DHT22;30877;43.706;10.780;2023-11-21T03:52:38;13.80;96.70
45115;DHT22;30877;43.706;10.780;2023-11-21T03:55:07;13.80;96.70
45115;DHT22;30877;43.706;10.780;2023-11-21T03:57:36;13.80;96.70
45115;DHT22;30877;43.706;10.780;2023-11-21T04:00:08;13.70;96.70
45115;DHT22;30877;43.706;10.780;2023-11-21T04:02:39;13.70;96.70
45115;DHT22;30877;43.706;10.780;2023-11-21T04:05:08;13.70;96.70
45115;DHT22;30877;43.706;10.780;2023-11-21T04:07:37;13.70;96.70
45115;DHT22;30877;43.706;10.780;2023-11-21T04:10:08;13.60;96.70
45115;DHT22;30877;43.706;10.780;2023-11-21T04:12:37;13.60;96.70
45115;DHT22;30877;43.706;10.780;2023-11-21T04:15:08;13.60;96.70
45115;DHT22;30877;43.706;10.780;2023-11-21T04:17:37;13.60;96.70
45115;DHT22;30877;43.706;10.780;2023-11-21T04:20:06;13.60;96.70
45115;DHT22;30877;43.706;10.780;2023-11-21T04:22:38;13.60;96.70
45115;DHT22;30877;43.706;10.780;2023-11-21T04:25:09;13.50;96.70
45115;DHT22;30877;43.706;10.780;2023-11-21T04:27:39;13.60;96.70
45115;DHT22;30877;43.706;10.780;2023-11-21T04:30:10;13.60;96.70
45115;DHT22;30877;43.706;10.780;2023-11-21T04:32:38;13.60;96.70
45115;DHT22;30877;43.706;10.780;2023-11-21T04:35:12;13.60;96.70
45115;DHT22;30877;43.706;10.780;2023-11-21T04:37:41;13.60;96.70
45115;DHT22;30877;43.706;10.780;2023-11-21T04:40:10;13.60;96.70
45115;DHT22;30877;43.706;10.780;2023-11-21T04:42:38;13.60;96.70
45115;DHT22;30877;43.706;10.780;2023-11-21T04:45:09;13.70;96.70
45115;DHT22;30877;43.706;10.780;2023-11-21T04:47:40;13.70;96.70
45115;DHT22;30877;43.706;10.780;2023-11-21T04:50:09;13.70;96.70
45115;DHT22;30877;43.706;10.780;2023-11-21T04:52:38;13.70;96.70
45115;DHT22;30877;43.706;10.780;2023-11-21T04:55:07;13.70;96.70
45115;DHT22;30877;43.706;10.780;2023-11-21T04:57:38;13.70;96.70
45115;DHT22;30877;43.706;10.780;2023-11-21T05:00:12;13.70;96.70
45115;DHT22;30877;43.706;10.780;2023-11-21T05:02:41;13.70;96.70
45115;DHT22;30877;43.706;10.780;2023-11-21T05:05:09;13.70;96.70
45115;DHT22;30877;43.706;10.780;2023-11-21T05:07:39;13.70;96.70
45115;DHT22;30877;43.706;10.780;2023-11-21T05:10:08;13.70;96.70
45115;DHT22;30877;43.706;10.780;2023-11-21T05:12:41;13.70;96.70
45115;DHT22;30877;43.706;10.780;2023-11-21T05:15:14;13.70;96.70
45115;DHT22;30877;43.706;10.780;2023-11-21T05:17:43;13.70;96.70
45115;DHT22;30877;43.706;10.780;2023-11-21T05:20:16;13.60;96.70
45115;DHT22;30877;43.706;10.780;2023-11-21T05:22:51;13.60;96.70
45115;DHT22;30877;43.706;10.780;2023-11-21T05:25:19;13.60;96.70
45115;DHT22;30877;43.706;10.780;2023-11-21T05:27:48;13.60;96.70
45115;DHT22;30877;43.706;10.780;2023-11-21T05:30:17;13.70;96.70
45115;DHT22;30877;43.706;10.780;2023-11-21T05:32:46;13.70;96.70
45115;DHT22;30877;43.706;10.780;2023-11-21T05:35:14;13.70;96.70
45115;DHT22;30877;43.706;10.780;2023-11-21T05:37:45;13.70;96.70
45115;DHT22;30877;43.706;10.780;2023-11-21T05:40:14;13.70;96.70
45115;DHT22;30877;43.706;10.780;2023-11-21T05:42:43;13.70;96.70
45115;DHT22;30877;43.706;10.780;2023-11-21T05:45:11;13.70;96.70
45115;DHT22;30877;43.706;10.780;2023-11-21T05:47:43;13.70;96.70
45115;DHT22;30877;43.706;10.780;2023-11-21T05:50:12;13.70;96.70
45115;DHT22;30877;43.706;10.780;2023-11-21T05:52:43;13.70;96.70
45115;DHT22;30877;43.706;10.780;2023-11-21T05:55:12;13.70;96.70
45115;DHT22;30877;43.706;10.780;2023-11-21T05:57:42;13.80;96.70
45115;DHT22;30877;43.706;10.780;2023-11-21T06:00:13;13.80;96.70
45115;DHT22;30877;43.706;10.780;2023-11-21T06:02:55;13.80;96.70
45115;DHT22;30877;43.706;10.780;2023-11-21T06:05:26;13.80;96.70
45115;DHT22;30877;43.706;10.780;2023-11-21T06:07:55;13.70;96.70
45115;DHT22;30877;43.706;10.780;2023-11-21T06:10:27;13.70;96.70
45115;DHT22;30877;43.706;10.780;2023-11-21T06:12:57;13.70;96.70
45115;DHT22;30877;43.706;10.780;2023-11-21T06:15:30;13.60;96.70
45115;DHT22;30877;43.706;10.780;2023-11-21T06:18:00;13.60;96.70
45115;DHT22;30877;43.706;10.780;2023-11-21T06:20:28;13.50;96.70
45115;DHT22;30877;43.706;10.780;2023-11-21T06:22:57;13.50;96.70
45115;DHT22;30877;43.706;10.780;2023-11-21T06:25:25;13.50;96.70
45115;DHT22;30877;43.706;10.780;2023-11-21T06:27:53;13.60;96.70
45115;DHT22;30877;43.706;10.780;2023-11-21T06:30:22;13.60;96.70
45115;DHT22;30877;43.706;10.780;2023-11-21T06:32:51;13.60;96.70
45115;DHT22;30877;43.706;10.780;2023-11-21T06:35:22;13.70;96.70
45115;DHT22;30877;43.706;10.780;2023-11-21T06:37:51;13.70;96.70
45115;DHT22;30877;43.706;10.780;2023-11-21T06:40:20;13.70;96.70
45115;DHT22;30877;43.706;10.780;2023-11-21T06:42:49;13.70;96.70
45115;DHT22;30877;43.706;10.780;2023-11-21T06:45:18;13.80;96.70
45115;DHT22;30877;43.706;10.780;2023-11-21T06:47:48;13.80;96.70
45115;DHT22;30877;43.706;10.780;2023-11-21T06:50:17;13.80;96.70
45115;DHT22;30877;43.706;10.780;2023-11-21T06:52:47;13.80;96.70
45115;DHT22;30877;43.706;10.780;2023-11-21T06:55:15;13.90;96.70
45115;DHT22;30877;43.706;10.780;2023-11-21T06:57:44;13.90;96.70
45115;DHT22;30877;43.706;10.780;2023-11-21T07:00:14;13.90;96.70
45115;DHT22;30877;43.706;10.780;2023-11-21T07:02:43;13.90;96.70
45115;DHT22;30877;43.706;10.780;2023-11-21T07:05:11;13.90;96.70
45115;DHT22;30877;43.706;10.780;2023-11-21T07:07:42;13.90;96.70
45115;DHT22;30877;43.706;10.780;2023-11-21T07:10:13;14.00;96.70
45115;DHT22;30877;43.706;10.780;2023-11-21T07:12:41;14.00;96.70
45115;DHT22;30877;43.706;10.780;2023-11-21T07:15:10;14.00;96.70
45115;DHT22;30877;43.706;10.780;2023-11-21T07:17:38;14.00;96.70
45115;DHT22;30877;43.706;10.780;2023-11-21T07:20:09;14.00;96.70
45115;DHT22;30877;43.706;10.780;2023-11-21T07:22:39;14.00;96.70
45115;DHT22;30877;43.706;10.780;2023-11-21T07:25:09;14.00;96.70
45115;DHT22;30877;43.706;10.780;2023-11-21T07:27:41;14.00;96.70
45115;DHT22;30877;43.706;10.780;2023-11-21T07:30:11;14.00;96.70
45115;DHT22;30877;43.706;10.780;2023-11-21T07:32:40;14.00;96.70
45115;DHT22;30877;43.706;10.780;2023-11-21T07:35:09;14.00;96.70
45115;DHT22;30877;43.706;10.780;2023-11-21T07:37:38;14.00;96.70
45115;DHT22;30877;43.706;10.780;2023-11-21T07:40:07;14.10;96.70
45115;DHT22;30877;43.706;10.780;2023-11-21T07:42:37;14.10;96.70
45115;DHT22;30877;43.706;10.780;2023-11-21T07:45:08;14.10;96.70
45115;DHT22;30877;43.706;10.780;2023-11-21T07:47:36;14.10;96.70
45115;DHT22;30877;43.706;10.780;2023-11-21T07:50:05;14.10;96.70
45115;DHT22;30877;43.706;10.780;2023-11-21T07:52:36;14.20;96.70
45115;DHT22;30877;43.706;10.780;2023-11-21T07:55:05;14.20;96.70
45115;DHT22;30877;43.706;10.780;2023-11-21T07:57:36;14.30;96.70
45115;DHT22;30877;43.706;10.780;2023-11-21T08:00:07;14.30;96.70
45115;DHT22;30877;43.706;10.780;2023-11-21T08:02:40;14.30;96.70
45115;DHT22;30877;43.706;10.780;2023-11-21T08:05:14;14.30;96.70
45115;DHT22;30877;43.706;10.780;2023-11-21T08:07:55;14.40;96.70
45115;DHT22;30877;43.706;10.780;2023-11-21T08:10:29;14.40;96.70
45115;DHT22;30877;43.706;10.780;2023-11-21T08:12:58;14.40;96.70
45115;DHT22;30877;43.706;10.780;2023-11-21T08:15:29;14.40;96.70
45115;DHT22;30877;43.706;10.780;2023-11-21T08:17:58;14.40;96.70
45115;DHT22;30877;43.706;10.780;2023-11-21T08:20:26;14.40;96.70
45115;DHT22;30877;43.706;10.780;2023-11-21T08:22:58;14.40;96.70
45115;DHT22;30877;43.706;10.780;2023-11-21T08:25:26;14.40;96.70
45115;DHT22;30877;43.706;10.780;2023-11-21T08:28:01;14.40;96.70
45115;DHT22;30877;43.706;10.780;2023-11-21T08:30:31;14.40;96.70
45115;DHT22;30877;43.706;10.780;2023-11-21T08:32:59;14.50;96.70
45115;DHT22;30877;43.706;10.780;2023-11-21T08:35:28;14.50;96.70
45115;DHT22;30877;43.706;10.780;2023-11-21T08:37:56;14.50;96.70
45115;DHT22;30877;43.706;10.780;2023-11-21T08:40:25;14.50;96.70
45115;DHT22;30877;43.706;10.780;2023-11-21T08:42:53;14.60;96.70
45115;DHT22;30877;43.706;10.780;2023-11-21T08:45:22;14.70;96.70
45115;DHT22;30877;43.706;10.780;2023-11-21T08:47:52;14.80;96.70
45115;DHT22;30877;43.706;10.780;2023-11-21T08:50:20;14.90;96.70
45115;DHT22;30877;43.706;10.780;2023-11-21T08:52:48;14.90;96.70
45115;DHT22;30877;43.706;10.780;2023-11-21T08:55:17;15.00;96.70
45115;DHT22;30877;43.706;10.780;2023-11-21T08:57:47;15.10;96.70
45115;DHT22;30877;43.706;10.780;2023-11-21T09:00:16;15.20;96.70
45115;DHT22;30877;43.706;10.780;2023-11-21T09:02:45;15.20;96.70
45115;DHT22;30877;43.706;10.780;2023-11-21T09:05:15;15.20;96.70
45115;DHT22;30877;43.706;10.780;2023-11-21T09:07:44;15.20;96.70
45115;DHT22;30877;43.706;10.780;2023-11-21T09:10:14;15.30;96.70
45115;DHT22;30877;43.706;10.780;2023-11-21T09:12:42;15.30;96.70
45115;DHT22;30877;43.706;10.780;2023-11-21T09:15:11;15.30;96.70
45115;DHT22;30877;43.706;10.780;2023-11-21T09:17:39;15.30;96.70
45115;DHT22;30877;43.706;10.780;2023-11-21T09:20:09;15.40;96.70
45115;DHT22;30877;43.706;10.780;2023-11-21T09:22:40;15.40;96.70
45115;DHT22;30877;43.706;10.780;2023-11-21T09:25:09;15.50;96.70
45115;DHT22;30877;43.706;10.780;2023-11-21T09:27:37;15.50;96.70
45115;DHT22;30877;43.706;10.780;2023-11-21T09:30:06;15.50;96.70
45115;DHT22;30877;43.706;10.780;2023-11-21T09:32:38;15.50;96.70
45115;DHT22;30877;43.706;10.780;2023-11-21T09:35:09;15.50;96.70
45115;DHT22;30877;43.706;10.780;2023-11-21T09:37:39;15.60;96.70
45115;DHT22;30877;43.706;10.780;2023-11-21T09:40:10;15.50;96.70
45115;DHT22;30877;43.706;10.780;2023-11-21T09:42:49;15.50;96.70
45115;DHT22;30877;43.706;10.780;2023-11-21T09:45:25;15.40;96.70
45115;DHT22;30877;43.706;10.780;2023-11-21T09:47:55;15.40;96.70
45115;DHT22;30877;43.706;10.780;2023-11-21T09:50:24;15.30;96.70
45115;DHT22;30877;43.706;10.780;2023-11-21T09:52:59;15.40;96.70
45115;DHT22;30877;43.706;10.780;2023-11-21T09:55:34;15.40;96.70
45115;DHT22;30877;43.706;10.780;2023-11-21T09:58:04;15.50;96.70
45115;DHT22;30877;43.706;10.780;2023-11-21T10:00:36;15.50;96.70
45115;DHT22;30877;43.706;10.780;2023-11-21T10:03:04;15.60;96.70
45115;DHT22;30877;43.706;10.780;2023-11-21T10:05:32;15.60;96.70
45115;DHT22;30877;43.706;10.780;2023-11-21T10:08:08;15.60;96.70
45115;DHT22;30877;43.706;10.780;2023-11-21T10:10:43;15.70;96.70
45115;DHT22;30877;43.706;10.780;2023-11-21T10:13:14;15.70;96.70
45115;DHT22;30877;43.706;10.780;2023-11-21T10:15:50;15.80;96.70
45115;DHT22;30877;43.706;10.780;2023-11-21T10:18:20;15.80;96.70
45115;DHT22;30877;43.706;10.780;2023-11-21T10:20:56;15.90;96.70
45115;DHT22;30877;43.706;10.780;2023-11-21T10:23:26;16.00;96.70
45115;DHT22;30877;43.706;10.780;2023-11-21T10:25:55;16.00;96.70
45115;DHT22;30877;43.706;10.780;2023-11-21T10:28:35;16.10;96.70
45115;DHT22;30877;43.706;10.780;2023-11-21T10:31:07;16.00;96.70
45115;DHT22;30877;43.706;10.780;2023-11-21T10:33:35;16.00;96.70
45115;DHT22;30877;43.706;10.780;2023-11-21T10:36:04;16.00;96.70
45115;DHT22;30877;43.706;10.780;2023-11-21T10:38:42;16.00;96.70
45115;DHT22;30877;43.706;10.780;2023-11-21T10:41:18;16.00;96.70
45115;DHT22;30877;43.706;10.780;2023-11-21T10:43:47;15.90;96.70
45115;DHT22;30877;43.706;10.780;2023-11-21T10:46:15;15.90;96.70
45115;DHT22;30877;43.706;10.780;2023-11-21T10:48:44;16.00;96.70
45115;DHT22;30877;43.706;10.780;2023-11-21T10:51:13;16.00;96.70
45115;DHT22;30877;43.706;10.780;2023-11-21T10:53:44;16.00;96.70
45115;DHT22;30877;43.706;10.780;2023-11-21T10:56:16;16.00;96.70
45115;DHT22;30877;43.706;10.780;2023-11-21T10:58:49;16.10;96.70
45115;DHT22;30877;43.706;10.780;2023-11-21T11:01:19;16.10;96.70
45115;DHT22;30877;43.706;10.780;2023-11-21T11:03:52;16.10;96.70
45115;DHT22;30877;43.706;10.780;2023-11-21T11:06:24;16.10;96.70
45115;DHT22;30877;43.706;10.780;2023-11-21T11:08:56;16.10;96.70
45115;DHT22;30877;43.706;10.780;2023-11-21T11:11:25;16.10;96.70
45115;DHT22;30877;43.706;10.780;2023-11-21T11:13:54;16.20;96.70
45115;DHT22;30877;43.706;10.780;2023-11-21T11:16:24;16.20;96.70
45115;DHT22;30877;43.706;10.780;2023-11-21T11:18:52;16.20;96.70
45115;DHT22;30877;43.706;10.780;2023-11-21T11:21:27;16.20;96.70
45115;DHT22;30877;43.706;10.780;2023-11-21T11:24:27;16.20;96.70
45115;DHT22;30877;43.706;10.780;2023-11-21T11:27:09;16.20;96.70
45115;DHT22;30877;43.706;10.780;2023-11-21T11:29:46;16.30;96.70
45115;DHT22;30877;43.706;10.780;2023-11-21T11:32:23;16.40;96.70
45115;DHT22;30877;43.706;10.780;2023-11-21T11:34:59;16.50;96.70
45115;DHT22;30877;43.706;10.780;2023-11-21T11:37:29;16.60;96.70
45115;DHT22;30877;43.706;10.780;2023-11-21T11:40:00;16.80;96.70
45115;DHT22;30877;43.706;10.780;2023-11-21T11:42:28;17.10;96.70
45115;DHT22;30877;43.706;10.780;2023-11-21T11:44:58;17.20;96.70
45115;DHT22;30877;43.706;10.780;2023-11-21T11:47:27;17.30;96.70
45115;DHT22;30877;43.706;10.780;2023-11-21T11:50:04;17.30;96.70
45115;DHT22;30877;43.706;10.780;2023-11-21T11:52:38;17.30;96.70
45115;DHT22;30877;43.706;10.780;2023-11-21T11:55:11;17.30;96.70
45115;DHT22;30877;43.706;10.780;2023-11-21T11:57:42;17.30;96.70
45115;DHT22;30877;43.706;10.780;2023-11-21T12:00:14;17.40;96.70
45115;DHT22;30877;43.706;10.780;2023-11-21T12:02:50;17.50;96.70
45115;DHT22;30877;43.706;10.780;2023-11-21T12:05:20;17.60;96.70
45115;DHT22;30877;43.706;10.780;2023-11-21T12:07:50;17.70;96.70
45115;DHT22;30877;43.706;10.780;2023-11-21T12:10:24;17.90;96.70
45115;DHT22;30877;43.706;10.780;2023-11-21T12:12:54;18.30;96.70
45115;DHT22;30877;43.706;10.780;2023-11-21T12:15:23;18.70;96.70
45115;DHT22;30877;43.706;10.780;2023-11-21T12:17:52;19.00;96.70
45115;DHT22;30877;43.706;10.780;2023-11-21T12:20:23;19.10;96.70
45115;DHT22;30877;43.706;10.780;2023-11-21T12:22:52;19.30;96.70
45115;DHT22;30877;43.706;10.780;2023-11-21T12:25:24;19.50;96.70
45115;DHT22;30877;43.706;10.780;2023-11-21T12:27:53;19.50;96.70
45115;DHT22;30877;43.706;10.780;2023-11-21T12:30:22;19.60;96.70
45115;DHT22;30877;43.706;10.780;2023-11-21T12:32:53;19.70;96.70
45115;DHT22;30877;43.706;10.780;2023-11-21T12:35:24;19.80;96.70
45115;DHT22;30877;43.706;10.780;2023-11-21T12:37:53;19.70;96.70
45115;DHT22;30877;43.706;10.780;2023-11-21T12:40:29;19.70;96.70
45115;DHT22;30877;43.706;10.780;2023-11-21T12:42:59;19.90;96.70
45115;DHT22;30877;43.706;10.780;2023-11-21T12:45:31;19.90;96.70
45115;DHT22;30877;43.706;10.780;2023-11-21T12:48:01;19.70;96.70
45115;DHT22;30877;43.706;10.780;2023-11-21T12:50:33;19.50;96.70
45115;DHT22;30877;43.706;10.780;2023-11-21T12:53:04;19.40;96.70
45115;DHT22;30877;43.706;10.780;2023-11-21T12:55:36;19.20;96.70
45115;DHT22;30877;43.706;10.780;2023-11-21T12:58:07;19.10;96.70
45115;DHT22;30877;43.706;10.780;2023-11-21T13:00:44;18.90;96.70
45115;DHT22;30877;43.706;10.780;2023-11-21T13:03:15;18.70;96.70
45115;DHT22;30877;43.706;10.780;2023-11-21T13:05:54;18.70;96.70
45115;DHT22;30877;43.706;10.780;2023-11-21T13:08:27;18.60;96.70
45115;DHT22;30877;43.706;10.780;2023-11-21T13:11:01;18.60;96.70
45115;DHT22;30877;43.706;10.780;2023-11-21T13:13:29;18.60;96.70
45115;DHT22;30877;43.706;10.780;2023-11-21T13:16:00;18.70;96.70
45115;DHT22;30877;43.706;10.780;2023-11-21T13:18:29;18.80;96.70
45115;DHT22;30877;43.706;10.780;2023-11-21T13:20:59;18.80;96.70
45115;DHT22;30877;43.706;10.780;2023-11-21T13:23:28;18.70;96.70
45115;DHT22;30877;43.706;10.780;2023-11-21T13:25:57;18.70;96.70
45115;DHT22;30877;43.706;10.780;2023-11-21T13:28:34;18.60;96.70
45115;DHT22;30877;43.706;10.780;2023-11-21T13:31:05;18.40;96.70
45115;DHT22;30877;43.706;10.780;2023-11-21T13:33:50;18.30;96.70
45115;DHT22;30877;43.706;10.780;2023-11-21T13:36:25;18.20;96.70
45115;DHT22;30877;43.706;10.780;2023-11-21T13:38:54;18.10;96.70
45115;DHT22;30877;43.706;10.780;2023-11-21T13:41:22;18.00;96.70
45115;DHT22;30877;43.706;10.780;2023-11-21T13:43:57;17.90;96.70
45115;DHT22;30877;43.706;10.780;2023-11-21T13:46:44;17.90;96.70
45115;DHT22;30877;43.706;10.780;2023-11-21T13:49:16;17.90;96.70
45115;DHT22;30877;43.706;10.780;2023-11-21T13:51:45;17.80;96.70
45115;DHT22;30877;43.706;10.780;2023-11-21T13:54:16;17.80;96.70
45115;DHT22;30877;43.706;10.780;2023-11-21T13:56:46;17.70;96.70
45115;DHT22;30877;43.706;10.780;2023-11-21T13:59:16;17.70;96.70
45115;DHT22;30877;43.706;10.780;2023-11-21T14:01:56;17.60;96.70
45115;DHT22;30877;43.706;10.780;2023-11-21T14:04:29;17.50;96.70
45115;DHT22;30877;43.706;10.780;2023-11-21T14:07:15;17.50;96.70
45115;DHT22;30877;43.706;10.780;2023-11-21T14:10:05;17.40;96.70
45115;DHT22;30877;43.706;10.780;2023-11-21T14:12:36;17.30;96.70
45115;DHT22;30877;43.706;10.780;2023-11-21T14:15:09;17.20;96.70
45115;DHT22;30877;43.706;10.780;2023-11-21T14:17:39;17.10;96.70
45115;DHT22;30877;43.706;10.780;2023-11-21T14:20:10;17.00;96.70
45115;DHT22;30877;43.706;10.780;2023-11-21T14:22:45;17.00;96.70
45115;DHT22;30877;43.706;10.780;2023-11-21T14:25:15;16.90;96.70
45115;DHT22;30877;43.706;10.780;2023-11-21T14:27:46;16.80;96.70
45115;DHT22;30877;43.706;10.780;2023-11-21T14:30:16;16.80;96.70
45115;DHT22;30877;43.706;10.780;2023-11-21T14:32:49;16.70;96.70
45115;DHT22;30877;43.706;10.780;2023-11-21T14:35:18;16.70;96.70
45115;DHT22;30877;43.706;10.780;2023-11-21T14:37:46;16.60;96.70
45115;DHT22;30877;43.706;10.780;2023-11-21T14:40:15;16.50;96.70
45115;DHT22;30877;43.706;10.780;2023-11-21T14:42:44;16.50;96.70
45115;DHT22;30877;43.706;10.780;2023-11-21T14:45:19;16.50;96.70
45115;DHT22;30877;43.706;10.780;2023-11-21T14:47:48;16.40;96.70
45115;DHT22;30877;43.706;10.780;2023-11-21T14:50:27;16.30;96.70
45115;DHT22;30877;43.706;10.780;2023-11-21T14:53:11;16.30;96.70
45115;DHT22;30877;43.706;10.780;2023-11-21T14:55:41;16.20;96.70
45115;DHT22;30877;43.706;10.780;2023-11-21T14:58:24;16.10;96.70
45115;DHT22;30877;43.706;10.780;2023-11-21T15:00:58;16.00;96.70
45115;DHT22;30877;43.706;10.780;2023-11-21T15:03:27;15.90;96.70
45115;DHT22;30877;43.706;10.780;2023-11-21T15:05:59;15.90;96.70
45115;DHT22;30877;43.706;10.780;2023-11-21T15:08:37;15.70;96.70
45115;DHT22;30877;43.706;10.780;2023-11-21T15:11:11;15.80;96.70
45115;DHT22;30877;43.706;10.780;2023-11-21T15:13:44;15.80;96.70
45115;DHT22;30877;43.706;10.780;2023-11-21T15:16:14;15.70;96.70
45115;DHT22;30877;43.706;10.780;2023-11-21T15:18:42;15.70;96.70
45115;DHT22;30877;43.706;10.780;2023-11-21T15:21:11;15.60;96.70
45115;DHT22;30877;43.706;10.780;2023-11-21T15:23:40;15.60;96.70
45115;DHT22;30877;43.706;10.780;2023-11-21T15:26:10;15.50;96.70
45115;DHT22;30877;43.706;10.780;2023-11-21T15:28:38;15.50;96.70
45115;DHT22;30877;43.706;10.780;2023-11-21T15:31:06;15.40;96.70
45115;DHT22;30877;43.706;10.780;2023-11-21T15:33:37;15.40;96.70
45115;DHT22;30877;43.706;10.780;2023-11-21T15:36:08;15.40;96.70